sensor_id;sensor_type;location;lat;lon;timestamp;temperature;humidity
66608;DHT22;53462;39.616;8.824;2022-11-20T00:00:47;10.90;99.90
66608;DHT22;53462;39.616;8.824;2022-11-20T00:03:12;10.90;99.90
66608;DHT22;53462;39.616;8.824;2022-11-20T00:05:38;10.90;99.90
66608;DHT22;53462;39.616;8.824;2022-11-20T00:08:04;10.90;99.90
66608;DHT22;53462;39.616;8.824;2022-11-20T00:10:30;11.00;99.90
66608;DHT22;53462;39.616;8.824;2022-11-20T00:12:57;11.10;99.90
66608;DHT22;53462;39.616;8.824;2022-11-20T00:15:23;11.10;99.90
66608;DHT22;53462;39.616;8.824;2022-11-20T00:17:48;11.10;99.90
66608;DHT22;53462;39.616;8.824;2022-11-20T00:20:14;11.10;99.90
66608;DHT22;53462;39.616;8.824;2022-11-20T00:22:40;11.00;99.90
66608;DHT22;53462;39.616;8.824;2022-11-20T00:25:06;11.10;99.90
66608;DHT22;53462;39.616;8.824;2022-11-20T00:27:31;11.20;99.90
66608;DHT22;53462;39.616;8.824;2022-11-20T00:29:57;11.30;99.90
66608;DHT22;53462;39.616;8.824;2022-11-20T00:32:23;11.20;99.90
66608;DHT22;53462;39.616;8.824;2022-11-20T00:34:49;11.10;99.90
66608;DHT22;53462;39.616;8.824;2022-11-20T00:37:15;11.10;99.90
66608;DHT22;53462;39.616;8.824;2022-11-20T00:39:40;11.30;99.90
66608;DHT22;53462;39.616;8.824;2022-11-20T00:42:06;11.40;99.90
66608;DHT22;53462;39.616;8.824;2022-11-20T00:44:32;11.30;99.90
66608;DHT22;53462;39.616;8.824;2022-11-20T00:46:58;11.30;99.90
66608;DHT22;53462;39.616;8.824;2022-11-20T00:49:24;11.40;99.90
66608;DHT22;53462;39.616;8.824;2022-11-20T00:51:49;11.30;99.90
66608;DHT22;53462;39.616;8.824;2022-11-20T00:54:15;11.10;99.90
66608;DHT22;53462;39.616;8.824;2022-11-20T00:56:41;11.20;99.90
66608;DHT22;53462;39.616;8.824;2022-11-20T00:59:08;11.10;99.90
66608;DHT22;53462;39.616;8.824;2022-11-20T01:01:34;11.20;99.90
66608;DHT22;53462;39.616;8.824;2022-11-20T01:04:01;11.20;99.90
66608;DHT22;53462;39.616;8.824;2022-11-20T01:06:31;11.30;99.90
66608;DHT22;53462;39.616;8.824;2022-11-20T01:08:58;11.30;99.90
66608;DHT22;53462;39.616;8.824;2022-11-20T01:11:25;11.30;99.90
66608;DHT22;53462;39.616;8.824;2022-11-20T01:13:52;11.30;99.90
66608;DHT22;53462;39.616;8.824;2022-11-20T01:16:22;11.20;99.90
66608;DHT22;53462;39.616;8.824;2022-11-20T01:18:48;11.10;99.90
66608;DHT22;53462;39.616;8.824;2022-11-20T01:21:16;11.10;99.90
66608;DHT22;53462;39.616;8.824;2022-11-20T01:23:42;11.10;99.90
66608;DHT22;53462;39.616;8.824;2022-11-20T01:26:13;11.20;99.90
66608;DHT22;53462;39.616;8.824;2022-11-20T01:28:39;11.30;99.90
66608;DHT22;53462;39.616;8.824;2022-11-20T01:31:21;11.20;99.90
66608;DHT22;53462;39.616;8.824;2022-11-20T01:33:48;11.30;99.90
66608;DHT22;53462;39.616;8.824;2022-11-20T01:36:14;11.30;99.90
66608;DHT22;53462;39.616;8.824;2022-11-20T01:38:40;11.30;99.90
66608;DHT22;53462;39.616;8.824;2022-11-20T01:41:07;11.40;99.90
66608;DHT22;53462;39.616;8.824;2022-11-20T01:43:33;11.40;99.90
66608;DHT22;53462;39.616;8.824;2022-11-20T01:48:36;11.30;99.90
66608;DHT22;53462;39.616;8.824;2022-11-20T01:51:04;11.30;99.90
66608;DHT22;53462;39.616;8.824;2022-11-20T01:53:31;11.40;99.90
66608;DHT22;53462;39.616;8.824;2022-11-20T01:55:58;11.40;99.90
66608;DHT22;53462;39.616;8.824;2022-11-20T01:58:28;11.40;99.90
66608;DHT22;53462;39.616;8.824;2022-11-20T02:00:55;11.40;99.90
66608;DHT22;53462;39.616;8.824;2022-11-20T02:03:21;11.40;99.90
66608;DHT22;53462;39.616;8.824;2022-11-20T02:05:49;11.40;99.90
66608;DHT22;53462;39.616;8.824;2022-11-20T02:08:17;11.50;99.90
66608;DHT22;53462;39.616;8.824;2022-11-20T02:10:43;11.50;99.90
66608;DHT22;53462;39.616;8.824;2022-11-20T02:13:09;11.40;99.90
66608;DHT22;53462;39.616;8.824;2022-11-20T02:15:53;11.40;99.90
66608;DHT22;53462;39.616;8.824;2022-11-20T02:18:20;11.40;99.90
66608;DHT22;53462;39.616;8.824;2022-11-20T02:20:47;11.40;99.90
66608;DHT22;53462;39.616;8.824;2022-11-20T02:23:19;11.30;99.90
66608;DHT22;53462;39.616;8.824;2022-11-20T02:25:48;11.40;99.90
66608;DHT22;53462;39.616;8.824;2022-11-20T02:28:15;11.30;99.90
66608;DHT22;53462;39.616;8.824;2022-11-20T02:30:42;11.40;99.90
66608;DHT22;53462;39.616;8.824;2022-11-20T02:33:08;11.30;99.90
66608;DHT22;53462;39.616;8.824;2022-11-20T02:38:00;11.10;99.90
66608;DHT22;53462;39.616;8.824;2022-11-20T02:40:26;11.20;99.90
66608;DHT22;53462;39.616;8.824;2022-11-20T02:42:53;11.20;99.90
66608;DHT22;53462;39.616;8.824;2022-11-20T02:45:19;11.20;99.90
66608;DHT22;53462;39.616;8.824;2022-11-20T02:47:44;11.10;99.90
66608;DHT22;53462;39.616;8.824;2022-11-20T02:50:10;11.00;99.90
66608;DHT22;53462;39.616;8.824;2022-11-20T02:52:36;10.90;99.90
66608;DHT22;53462;39.616;8.824;2022-11-20T02:55:02;11.00;99.90
66608;DHT22;53462;39.616;8.824;2022-11-20T02:57:28;11.00;99.90
66608;DHT22;53462;39.616;8.824;2022-11-20T02:59:53;11.00;99.90
66608;DHT22;53462;39.616;8.824;2022-11-20T03:02:19;11.00;99.90
66608;DHT22;53462;39.616;8.824;2022-11-20T03:04:46;10.90;99.90
66608;DHT22;53462;39.616;8.824;2022-11-20T03:07:11;10.90;99.90
66608;DHT22;53462;39.616;8.824;2022-11-20T03:09:37;10.80;99.90
66608;DHT22;53462;39.616;8.824;2022-11-20T03:12:03;10.70;99.90
66608;DHT22;53462;39.616;8.824;2022-11-20T03:14:29;10.60;99.90
66608;DHT22;53462;39.616;8.824;2022-11-20T03:16:55;10.40;99.90
66608;DHT22;53462;39.616;8.824;2022-11-20T03:19:20;10.30;99.90
66608;DHT22;53462;39.616;8.824;2022-11-20T03:21:46;10.40;99.90
66608;DHT22;53462;39.616;8.824;2022-11-20T03:24:12;10.20;99.90
66608;DHT22;53462;39.616;8.824;2022-11-20T03:26:39;10.10;99.90
66608;DHT22;53462;39.616;8.824;2022-11-20T03:29:05;10.00;99.90
66608;DHT22;53462;39.616;8.824;2022-11-20T03:31:32;10.00;99.90
66608;DHT22;53462;39.616;8.824;2022-11-20T03:33:58;10.00;99.90
66608;DHT22;53462;39.616;8.824;2022-11-20T03:36:24;10.00;99.90
66608;DHT22;53462;39.616;8.824;2022-11-20T03:38:52;10.10;99.90
66608;DHT22;53462;39.616;8.824;2022-11-20T03:41:19;10.20;99.90
66608;DHT22;53462;39.616;8.824;2022-11-20T03:43:48;10.20;99.90
66608;DHT22;53462;39.616;8.824;2022-11-20T03:46:14;10.20;99.90
66608;DHT22;53462;39.616;8.824;2022-11-20T03:48:40;10.30;99.90
66608;DHT22;53462;39.616;8.824;2022-11-20T03:51:07;10.30;99.90
66608;DHT22;53462;39.616;8.824;2022-11-20T03:53:33;10.40;99.90
66608;DHT22;53462;39.616;8.824;2022-11-20T03:55:59;10.30;99.90
66608;DHT22;53462;39.616;8.824;2022-11-20T03:58:24;10.30;99.90
66608;DHT22;53462;39.616;8.824;2022-11-20T04:00:50;10.30;99.90
66608;DHT22;53462;39.616;8.824;2022-11-20T04:03:16;10.30;99.90
66608;DHT22;53462;39.616;8.824;2022-11-20T04:05:42;10.20;99.90
66608;DHT22;53462;39.616;8.824;2022-11-20T04:08:07;10.10;99.90
66608;DHT22;53462;39.616;8.824;2022-11-20T04:10:33;10.10;99.90
66608;DHT22;53462;39.616;8.824;2022-11-20T04:12:59;10.10;99.90
66608;DHT22;53462;39.616;8.824;2022-11-20T04:15:25;10.00;99.90
66608;DHT22;53462;39.616;8.824;2022-11-20T04:17:51;10.20;99.90
66608;DHT22;53462;39.616;8.824;2022-11-20T04:20:16;10.30;99.90
66608;DHT22;53462;39.616;8.824;2022-11-20T04:22:42;10.20;99.90
66608;DHT22;53462;39.616;8.824;2022-11-20T04:25:08;10.20;99.90
66608;DHT22;53462;39.616;8.824;2022-11-20T04:27:34;10.40;99.90
66608;DHT22;53462;39.616;8.824;2022-11-20T04:29:59;10.50;99.90
66608;DHT22;53462;39.616;8.824;2022-11-20T04:32:25;10.50;99.90
66608;DHT22;53462;39.616;8.824;2022-11-20T04:34:51;10.50;99.90
66608;DHT22;53462;39.616;8.824;2022-11-20T04:37:17;10.60;99.90
66608;DHT22;53462;39.616;8.824;2022-11-20T04:39:43;10.40;99.90
66608;DHT22;53462;39.616;8.824;2022-11-20T04:42:09;10.50;99.90
66608;DHT22;53462;39.616;8.824;2022-11-20T04:44:53;10.50;99.90
66608;DHT22;53462;39.616;8.824;2022-11-20T04:47:19;10.50;99.90
66608;DHT22;53462;39.616;8.824;2022-11-20T04:49:45;10.50;99.90
66608;DHT22;53462;39.616;8.824;2022-11-20T04:52:11;10.50;99.90
66608;DHT22;53462;39.616;8.824;2022-11-20T04:54:37;10.40;99.90
66608;DHT22;53462;39.616;8.824;2022-11-20T04:57:02;10.30;99.90
66608;DHT22;53462;39.616;8.824;2022-11-20T04:59:28;10.20;99.90
66608;DHT22;53462;39.616;8.824;2022-11-20T05:01:54;10.00;99.90
66608;DHT22;53462;39.616;8.824;2022-11-20T05:04:20;10.00;99.90
66608;DHT22;53462;39.616;8.824;2022-11-20T05:06:46;9.80;99.90
66608;DHT22;53462;39.616;8.824;2022-11-20T05:09:12;9.80;99.90
66608;DHT22;53462;39.616;8.824;2022-11-20T05:11:38;9.80;99.90
66608;DHT22;53462;39.616;8.824;2022-11-20T05:14:03;9.80;99.90
66608;DHT22;53462;39.616;8.824;2022-11-20T05:16:29;9.90;99.90
66608;DHT22;53462;39.616;8.824;2022-11-20T05:18:55;10.00;99.90
66608;DHT22;53462;39.616;8.824;2022-11-20T05:21:21;10.20;99.90
66608;DHT22;53462;39.616;8.824;2022-11-20T05:23:47;10.30;99.90
66608;DHT22;53462;39.616;8.824;2022-11-20T05:26:14;10.40;99.90
66608;DHT22;53462;39.616;8.824;2022-11-20T05:28:41;10.30;99.90
66608;DHT22;53462;39.616;8.824;2022-11-20T05:31:09;10.30;99.90
66608;DHT22;53462;39.616;8.824;2022-11-20T05:33:35;10.20;99.90
66608;DHT22;53462;39.616;8.824;2022-11-20T05:36:04;10.20;99.90
66608;DHT22;53462;39.616;8.824;2022-11-20T05:38:30;10.20;99.90
66608;DHT22;53462;39.616;8.824;2022-11-20T05:41:02;10.10;99.90
66608;DHT22;53462;39.616;8.824;2022-11-20T05:43:28;10.10;99.90
66608;DHT22;53462;39.616;8.824;2022-11-20T05:45:56;10.10;99.90
66608;DHT22;53462;39.616;8.824;2022-11-20T05:48:22;10.00;99.90
66608;DHT22;53462;39.616;8.824;2022-11-20T05:50:48;10.00;99.90
66608;DHT22;53462;39.616;8.824;2022-11-20T05:53:13;10.00;99.90
66608;DHT22;53462;39.616;8.824;2022-11-20T05:55:39;10.00;99.90
66608;DHT22;53462;39.616;8.824;2022-11-20T05:58:05;10.00;99.90
66608;DHT22;53462;39.616;8.824;2022-11-20T06:00:31;10.10;99.90
66608;DHT22;53462;39.616;8.824;2022-11-20T06:02:56;10.20;99.90
66608;DHT22;53462;39.616;8.824;2022-11-20T06:05:22;10.10;99.90
66608;DHT22;53462;39.616;8.824;2022-11-20T06:07:48;10.10;99.90
66608;DHT22;53462;39.616;8.824;2022-11-20T06:10:14;10.20;99.90
66608;DHT22;53462;39.616;8.824;2022-11-20T06:12:40;10.20;99.90
66608;DHT22;53462;39.616;8.824;2022-11-20T06:15:05;10.20;99.90
66608;DHT22;53462;39.616;8.824;2022-11-20T06:17:31;10.20;99.90
66608;DHT22;53462;39.616;8.824;2022-11-20T06:19:57;10.10;99.90
66608;DHT22;53462;39.616;8.824;2022-11-20T06:22:23;10.20;99.90
66608;DHT22;53462;39.616;8.824;2022-11-20T06:24:49;10.20;99.90
66608;DHT22;53462;39.616;8.824;2022-11-20T06:27:15;10.20;99.90
66608;DHT22;53462;39.616;8.824;2022-11-20T06:29:41;10.10;99.90
66608;DHT22;53462;39.616;8.824;2022-11-20T06:32:07;10.10;99.90
66608;DHT22;53462;39.616;8.824;2022-11-20T06:34:33;10.00;99.90
66608;DHT22;53462;39.616;8.824;2022-11-20T06:36:58;9.80;99.90
66608;DHT22;53462;39.616;8.824;2022-11-20T06:39:24;9.60;99.90
66608;DHT22;53462;39.616;8.824;2022-11-20T06:41:50;9.60;99.90
66608;DHT22;53462;39.616;8.824;2022-11-20T06:44:16;9.60;99.90
66608;DHT22;53462;39.616;8.824;2022-11-20T06:46:42;9.60;99.90
66608;DHT22;53462;39.616;8.824;2022-11-20T06:49:07;9.60;99.90
66608;DHT22;53462;39.616;8.824;2022-11-20T06:51:33;9.70;99.90
66608;DHT22;53462;39.616;8.824;2022-11-20T06:53:59;10.00;99.90
66608;DHT22;53462;39.616;8.824;2022-11-20T06:56:26;10.20;99.90
66608;DHT22;53462;39.616;8.824;2022-11-20T06:58:52;10.30;99.90
66608;DHT22;53462;39.616;8.824;2022-11-20T07:01:18;10.30;99.90
66608;DHT22;53462;39.616;8.824;2022-11-20T07:03:43;10.40;99.90
66608;DHT22;53462;39.616;8.824;2022-11-20T07:06:09;10.80;99.90
66608;DHT22;53462;39.616;8.824;2022-11-20T07:08:35;11.20;99.90
66608;DHT22;53462;39.616;8.824;2022-11-20T07:11:02;11.40;99.90
66608;DHT22;53462;39.616;8.824;2022-11-20T07:13:29;11.30;99.90
66608;DHT22;53462;39.616;8.824;2022-11-20T07:15:58;11.40;99.90
66608;DHT22;53462;39.616;8.824;2022-11-20T07:18:24;11.50;99.90
66608;DHT22;53462;39.616;8.824;2022-11-20T07:20:50;11.80;99.90
66608;DHT22;53462;39.616;8.824;2022-11-20T07:23:16;11.90;99.90
66608;DHT22;53462;39.616;8.824;2022-11-20T07:25:42;12.50;99.90
66608;DHT22;53462;39.616;8.824;2022-11-20T07:28:07;12.70;99.90
66608;DHT22;53462;39.616;8.824;2022-11-20T07:30:36;12.60;99.90
66608;DHT22;53462;39.616;8.824;2022-11-20T07:33:01;12.50;99.90
66608;DHT22;53462;39.616;8.824;2022-11-20T07:35:27;12.90;99.90
66608;DHT22;53462;39.616;8.824;2022-11-20T07:37:53;12.70;99.90
66608;DHT22;53462;39.616;8.824;2022-11-20T07:40:19;12.70;99.90
66608;DHT22;53462;39.616;8.824;2022-11-20T07:42:48;12.80;99.90
66608;DHT22;53462;39.616;8.824;2022-11-20T07:45:15;13.20;99.90
66608;DHT22;53462;39.616;8.824;2022-11-20T07:47:40;14.70;99.90
66608;DHT22;53462;39.616;8.824;2022-11-20T07:50:10;16.30;99.90
66608;DHT22;53462;39.616;8.824;2022-11-20T07:52:36;15.60;97.60
66608;DHT22;53462;39.616;8.824;2022-11-20T07:55:02;15.60;99.90
66608;DHT22;53462;39.616;8.824;2022-11-20T07:57:27;15.40;98.00
66608;DHT22;53462;39.616;8.824;2022-11-20T07:59:53;15.10;99.90
66608;DHT22;53462;39.616;8.824;2022-11-20T08:02:19;15.20;97.80
66608;DHT22;53462;39.616;8.824;2022-11-20T08:04:45;14.40;99.90
66608;DHT22;53462;39.616;8.824;2022-11-20T08:07:10;14.00;99.90
66608;DHT22;53462;39.616;8.824;2022-11-20T08:09:36;13.80;99.90
66608;DHT22;53462;39.616;8.824;2022-11-20T08:12:02;13.80;99.90
66608;DHT22;53462;39.616;8.824;2022-11-20T08:14:46;13.80;99.90
66608;DHT22;53462;39.616;8.824;2022-11-20T08:17:12;13.90;99.90
66608;DHT22;53462;39.616;8.824;2022-11-20T08:19:38;14.00;99.90
66608;DHT22;53462;39.616;8.824;2022-11-20T08:22:04;14.20;99.90
66608;DHT22;53462;39.616;8.824;2022-11-20T08:24:29;14.00;99.90
66608;DHT22;53462;39.616;8.824;2022-11-20T08:26:57;13.90;99.90
66608;DHT22;53462;39.616;8.824;2022-11-20T08:29:22;13.70;99.90
66608;DHT22;53462;39.616;8.824;2022-11-20T08:31:48;13.80;99.90
66608;DHT22;53462;39.616;8.824;2022-11-20T08:34:14;13.80;99.90
66608;DHT22;53462;39.616;8.824;2022-11-20T08:36:40;13.80;99.90
66608;DHT22;53462;39.616;8.824;2022-11-20T08:39:06;13.90;99.90
66608;DHT22;53462;39.616;8.824;2022-11-20T08:41:32;13.90;99.90
66608;DHT22;53462;39.616;8.824;2022-11-20T08:43:59;14.00;99.90
66608;DHT22;53462;39.616;8.824;2022-11-20T08:46:26;14.00;99.90
66608;DHT22;53462;39.616;8.824;2022-11-20T08:48:52;14.10;99.90
66608;DHT22;53462;39.616;8.824;2022-11-20T08:51:18;14.40;99.90
66608;DHT22;53462;39.616;8.824;2022-11-20T08:53:44;19.70;93.10
66608;DHT22;53462;39.616;8.824;2022-11-20T08:56:10;23.10;67.40
66608;DHT22;53462;39.616;8.824;2022-11-20T08:58:37;24.90;58.60
66608;DHT22;53462;39.616;8.824;2022-11-20T09:01:02;25.10;52.10
66608;DHT22;53462;39.616;8.824;2022-11-20T09:03:28;23.50;55.40
66608;DHT22;53462;39.616;8.824;2022-11-20T09:05:58;20.50;60.40
66608;DHT22;53462;39.616;8.824;2022-11-20T09:08:24;20.90;67.20
66608;DHT22;53462;39.616;8.824;2022-11-20T09:10:51;19.50;65.80
66608;DHT22;53462;39.616;8.824;2022-11-20T09:13:17;20.00;69.00
66608;DHT22;53462;39.616;8.824;2022-11-20T09:15:43;20.60;62.00
66608;DHT22;53462;39.616;8.824;2022-11-20T09:18:09;18.20;70.30
66608;DHT22;53462;39.616;8.824;2022-11-20T09:20:34;17.20;75.00
66608;DHT22;53462;39.616;8.824;2022-11-20T09:23:00;17.50;74.80
66608;DHT22;53462;39.616;8.824;2022-11-20T09:25:26;16.80;78.40
66608;DHT22;53462;39.616;8.824;2022-11-20T09:27:55;20.00;68.90
66608;DHT22;53462;39.616;8.824;2022-11-20T09:30:21;19.70;67.50
66608;DHT22;53462;39.616;8.824;2022-11-20T09:32:47;23.70;56.90
66608;DHT22;53462;39.616;8.824;2022-11-20T09:35:13;24.90;50.50
66608;DHT22;53462;39.616;8.824;2022-11-20T09:37:40;19.90;60.70
66608;DHT22;53462;39.616;8.824;2022-11-20T09:40:06;20.30;64.90
66608;DHT22;53462;39.616;8.824;2022-11-20T09:42:53;22.60;57.30
66608;DHT22;53462;39.616;8.824;2022-11-20T09:53:04;25.50;47.30
66608;DHT22;53462;39.616;8.824;2022-11-20T09:55:34;26.00;46.50
66608;DHT22;53462;39.616;8.824;2022-11-20T09:58:07;25.90;47.20
66608;DHT22;53462;39.616;8.824;2022-11-20T10:00:38;25.10;48.20
66608;DHT22;53462;39.616;8.824;2022-11-20T10:03:17;26.50;45.10
66608;DHT22;53462;39.616;8.824;2022-11-20T10:05:45;27.00;43.80
66608;DHT22;53462;39.616;8.824;2022-11-20T10:11:00;22.20;51.20
66608;DHT22;53462;39.616;8.824;2022-11-20T10:26:00;27.20;43.50
66608;DHT22;53462;39.616;8.824;2022-11-20T10:31:14;19.50;56.00
66608;DHT22;53462;39.616;8.824;2022-11-20T10:33:43;19.30;64.00
66608;DHT22;53462;39.616;8.824;2022-11-20T10:36:14;19.80;61.20
66608;DHT22;53462;39.616;8.824;2022-11-20T10:38:43;19.60;59.90
66608;DHT22;53462;39.616;8.824;2022-11-20T10:41:13;18.50;62.00
66608;DHT22;53462;39.616;8.824;2022-11-20T10:44:12;18.00;65.80
66608;DHT22;53462;39.616;8.824;2022-11-20T10:46:40;17.50;67.90
66608;DHT22;53462;39.616;8.824;2022-11-20T10:49:14;17.10;70.00
66608;DHT22;53462;39.616;8.824;2022-11-20T10:56:39;16.70;75.10
66608;DHT22;53462;39.616;8.824;2022-11-20T11:01:51;16.70;75.10
66608;DHT22;53462;39.616;8.824;2022-11-20T11:07:04;17.20;72.40
66608;DHT22;53462;39.616;8.824;2022-11-20T11:09:34;16.50;74.10
66608;DHT22;53462;39.616;8.824;2022-11-20T11:12:01;17.10;75.50
66608;DHT22;53462;39.616;8.824;2022-11-20T11:14:26;18.20;69.00
66608;DHT22;53462;39.616;8.824;2022-11-20T11:16:53;18.10;70.80
66608;DHT22;53462;39.616;8.824;2022-11-20T11:19:19;17.90;70.60
66608;DHT22;53462;39.616;8.824;2022-11-20T11:21:46;17.40;71.20
66608;DHT22;53462;39.616;8.824;2022-11-20T11:24:19;16.80;72.70
66608;DHT22;53462;39.616;8.824;2022-11-20T11:26:53;16.50;74.00
66608;DHT22;53462;39.616;8.824;2022-11-20T11:29:20;16.30;78.00
66608;DHT22;53462;39.616;8.824;2022-11-20T11:31:46;16.30;79.70
66608;DHT22;53462;39.616;8.824;2022-11-20T11:34:16;16.20;78.70
66608;DHT22;53462;39.616;8.824;2022-11-20T11:36:42;16.10;79.40
66608;DHT22;53462;39.616;8.824;2022-11-20T11:39:16;16.50;79.50
66608;DHT22;53462;39.616;8.824;2022-11-20T11:41:42;17.50;77.30
66608;DHT22;53462;39.616;8.824;2022-11-20T11:44:25;18.00;75.30
66608;DHT22;53462;39.616;8.824;2022-11-20T11:47:17;17.80;74.00
66608;DHT22;53462;39.616;8.824;2022-11-20T11:49:45;17.80;74.40
66608;DHT22;53462;39.616;8.824;2022-11-20T11:52:18;17.70;74.90
66608;DHT22;53462;39.616;8.824;2022-11-20T12:00:09;15.60;90.60
66608;DHT22;53462;39.616;8.824;2022-11-20T12:07:59;15.20;99.90
66608;DHT22;53462;39.616;8.824;2022-11-20T12:13:18;16.70;99.40
66608;DHT22;53462;39.616;8.824;2022-11-20T12:15:46;17.30;95.30
66608;DHT22;53462;39.616;8.824;2022-11-20T12:18:18;17.70;92.80
66608;DHT22;53462;39.616;8.824;2022-11-20T12:26:22;17.80;89.10
66608;DHT22;53462;39.616;8.824;2022-11-20T12:28:56;17.80;88.70
66608;DHT22;53462;39.616;8.824;2022-11-20T12:36:27;18.30;86.90
66608;DHT22;53462;39.616;8.824;2022-11-20T12:49:52;18.30;78.00
66608;DHT22;53462;39.616;8.824;2022-11-20T13:02:25;17.90;75.80
66608;DHT22;53462;39.616;8.824;2022-11-20T13:07:18;17.10;81.30
66608;DHT22;53462;39.616;8.824;2022-11-20T13:09:48;17.50;84.20
66608;DHT22;53462;39.616;8.824;2022-11-20T13:14:55;17.70;85.90
66608;DHT22;53462;39.616;8.824;2022-11-20T13:19:51;17.40;85.90
66608;DHT22;53462;39.616;8.824;2022-11-20T13:22:28;16.80;87.10
66608;DHT22;53462;39.616;8.824;2022-11-20T13:24:54;16.50;90.20
66608;DHT22;53462;39.616;8.824;2022-11-20T13:27:23;16.20;92.50
66608;DHT22;53462;39.616;8.824;2022-11-20T13:29:59;16.00;92.90
66608;DHT22;53462;39.616;8.824;2022-11-20T13:32:26;15.90;93.90
66608;DHT22;53462;39.616;8.824;2022-11-20T13:34:59;15.80;93.80
66608;DHT22;53462;39.616;8.824;2022-11-20T13:39:51;15.80;94.70
66608;DHT22;53462;39.616;8.824;2022-11-20T13:42:21;16.50;95.20
66608;DHT22;53462;39.616;8.824;2022-11-20T13:44:53;17.60;92.30
66608;DHT22;53462;39.616;8.824;2022-11-20T13:47:20;18.10;88.20
66608;DHT22;53462;39.616;8.824;2022-11-20T13:49:47;18.50;82.60
66608;DHT22;53462;39.616;8.824;2022-11-20T13:54:57;17.00;82.90
66608;DHT22;53462;39.616;8.824;2022-11-20T13:57:32;17.30;87.90
66608;DHT22;53462;39.616;8.824;2022-11-20T14:02:36;16.70;83.30
66608;DHT22;53462;39.616;8.824;2022-11-20T14:05:02;16.50;83.80
66608;DHT22;53462;39.616;8.824;2022-11-20T14:07:35;16.50;83.90
66608;DHT22;53462;39.616;8.824;2022-11-20T14:10:03;16.50;86.40
66608;DHT22;53462;39.616;8.824;2022-11-20T14:12:30;16.80;88.40
66608;DHT22;53462;39.616;8.824;2022-11-20T14:14:56;19.70;76.80
66608;DHT22;53462;39.616;8.824;2022-11-20T14:19:49;17.20;84.30
66608;DHT22;53462;39.616;8.824;2022-11-20T14:24:45;16.60;88.20
66608;DHT22;53462;39.616;8.824;2022-11-20T14:27:15;16.50;89.90
66608;DHT22;53462;39.616;8.824;2022-11-20T14:29:41;16.40;88.80
66608;DHT22;53462;39.616;8.824;2022-11-20T14:32:08;16.30;88.70
66608;DHT22;53462;39.616;8.824;2022-11-20T14:34:38;16.60;89.10
66608;DHT22;53462;39.616;8.824;2022-11-20T14:37:10;16.70;88.10
66608;DHT22;53462;39.616;8.824;2022-11-20T14:39:37;16.60;88.80
66608;DHT22;53462;39.616;8.824;2022-11-20T14:42:11;16.30;90.30
66608;DHT22;53462;39.616;8.824;2022-11-20T14:44:39;16.40;91.70
66608;DHT22;53462;39.616;8.824;2022-11-20T14:47:06;16.20;93.00
66608;DHT22;53462;39.616;8.824;2022-11-20T14:49:32;15.70;98.80
66608;DHT22;53462;39.616;8.824;2022-11-20T14:51:59;15.30;99.90
66608;DHT22;53462;39.616;8.824;2022-11-20T14:54:25;15.10;99.90
66608;DHT22;53462;39.616;8.824;2022-11-20T14:56:56;14.90;99.90
66608;DHT22;53462;39.616;8.824;2022-11-20T14:59:23;14.80;99.90
66608;DHT22;53462;39.616;8.824;2022-11-20T15:02:03;14.90;99.90
66608;DHT22;53462;39.616;8.824;2022-11-20T15:04:29;14.80;99.90
66608;DHT22;53462;39.616;8.824;2022-11-20T15:06:56;14.70;99.90
66608;DHT22;53462;39.616;8.824;2022-11-20T15:09:22;14.60;99.90
66608;DHT22;53462;39.616;8.824;2022-11-20T15:11:58;14.40;99.90
66608;DHT22;53462;39.616;8.824;2022-11-20T15:14:25;14.20;99.90
66608;DHT22;53462;39.616;8.824;2022-11-20T15:16:51;14.30;99.90
66608;DHT22;53462;39.616;8.824;2022-11-20T15:19:21;14.50;99.90
66608;DHT22;53462;39.616;8.824;2022-11-20T15:21:47;14.40;99.90
66608;DHT22;53462;39.616;8.824;2022-11-20T15:24:14;14.30;99.90
66608;DHT22;53462;39.616;8.824;2022-11-20T15:26:39;14.20;99.90
66608;DHT22;53462;39.616;8.824;2022-11-20T15:29:09;14.10;99.90
66608;DHT22;53462;39.616;8.824;2022-11-20T15:31:36;14.10;99.90
66608;DHT22;53462;39.616;8.824;2022-11-20T15:34:03;14.00;99.90
66608;DHT22;53462;39.616;8.824;2022-11-20T15:36:32;13.90;99.90
66608;DHT22;53462;39.616;8.824;2022-11-20T15:38:58;13.80;99.90
66608;DHT22;53462;39.616;8.824;2022-11-20T15:41:23;13.80;99.90
66608;DHT22;53462;39.616;8.824;2022-11-20T15:43:49;13.70;99.90
66608;DHT22;53462;39.616;8.824;2022-11-20T15:46:16;13.70;99.90
66608;DHT22;53462;39.616;8.824;2022-11-20T15:48:43;13.70;99.90
66608;DHT22;53462;39.616;8.824;2022-11-20T15:53:36;13.80;99.90
66608;DHT22;53462;39.616;8.824;2022-11-20T15:56:02;13.90;99.90
66608;DHT22;53462;39.616;8.824;2022-11-20T15:58:28;13.80;99.90
66608;DHT22;53462;39.616;8.824;2022-11-20T16:00:53;13.70;99.90
66608;DHT22;53462;39.616;8.824;2022-11-20T16:03:19;13.60;99.90
66608;DHT22;53462;39.616;8.824;2022-11-20T16:05:45;13.60;99.90
66608;DHT22;53462;39.616;8.824;2022-11-20T16:08:11;13.70;99.90
66608;DHT22;53462;39.616;8.824;2022-11-20T16:10:37;13.60;99.90
66608;DHT22;53462;39.616;8.824;2022-11-20T16:13:03;13.50;99.90
66608;DHT22;53462;39.616;8.824;2022-11-20T16:15:50;13.50;99.90
66608;DHT22;53462;39.616;8.824;2022-11-20T16:18:18;13.50;99.90
66608;DHT22;53462;39.616;8.824;2022-11-20T16:20:45;13.60;99.90
66608;DHT22;53462;39.616;8.824;2022-11-20T16:23:11;13.60;99.90
66608;DHT22;53462;39.616;8.824;2022-11-20T16:25:37;13.60;99.90
66608;DHT22;53462;39.616;8.824;2022-11-20T16:28:03;13.60;99.90
66608;DHT22;53462;39.616;8.824;2022-11-20T16:30:29;13.60;99.90
66608;DHT22;53462;39.616;8.824;2022-11-20T16:32:56;13.60;99.90
66608;DHT22;53462;39.616;8.824;2022-11-20T16:35:22;13.50;99.90
66608;DHT22;53462;39.616;8.824;2022-11-20T16:37:47;13.50;99.90
66608;DHT22;53462;39.616;8.824;2022-11-20T16:40:13;13.50;99.90
66608;DHT22;53462;39.616;8.824;2022-11-20T16:42:39;13.30;99.90
66608;DHT22;53462;39.616;8.824;2022-11-20T16:45:05;13.30;99.90
66608;DHT22;53462;39.616;8.824;2022-11-20T16:47:34;13.30;99.90
66608;DHT22;53462;39.616;8.824;2022-11-20T16:50:00;13.40;99.90
66608;DHT22;53462;39.616;8.824;2022-11-20T16:52:26;13.30;99.90
66608;DHT22;53462;39.616;8.824;2022-11-20T16:54:52;13.20;99.90
66608;DHT22;53462;39.616;8.824;2022-11-20T16:57:18;13.20;99.90
66608;DHT22;53462;39.616;8.824;2022-11-20T16:59:43;13.30;99.90
66608;DHT22;53462;39.616;8.824;2022-11-20T17:02:09;13.20;99.90
66608;DHT22;53462;39.616;8.824;2022-11-20T17:04:35;13.10;99.90
66608;DHT22;53462;39.616;8.824;2022-11-20T17:07:01;13.10;99.90
66608;DHT22;53462;39.616;8.824;2022-11-20T17:09:27;13.10;99.90
66608;DHT22;53462;39.616;8.824;2022-11-20T17:11:53;13.00;99.90
66608;DHT22;53462;39.616;8.824;2022-11-20T17:14:19;13.00;99.90
66608;DHT22;53462;39.616;8.824;2022-11-20T17:16:45;13.00;99.90
66608;DHT22;53462;39.616;8.824;2022-11-20T17:19:11;13.00;99.90
66608;DHT22;53462;39.616;8.824;2022-11-20T17:21:38;13.00;99.90